createdAt,value
2023-02-19T00:01:17.412Z,12.9
2023-02-19T00:07:14.848Z,12.8
2023-02-19T00:12:47.983Z,12.7
2023-02-19T00:18:23.160Z,12.7
2023-02-19T00:23:58.302Z,12.7
2023-02-19T00:29:34.628Z,12.6
2023-02-19T00:35:09.933Z,12.6
2023-02-19T00:40:45.438Z,12.5
2023-02-19T00:46:21.400Z,12.5
2023-02-19T00:51:57.910Z,12.3
2023-02-19T00:57:33.150Z,12.2
2023-02-19T01:03:08.552Z,12.1
2023-02-19T01:09:05.197Z,12
2023-02-19T01:14:39.149Z,12
2023-02-19T01:20:14.609Z,12
2023-02-19T01:25:49.581Z,12
2023-02-19T01:31:24.912Z,12
2023-02-19T01:37:02.074Z,11.9
2023-02-19T01:42:37.173Z,11.9
2023-02-19T01:48:12.374Z,11.8
2023-02-19T01:53:49.244Z,11.8
2023-02-19T01:59:24.165Z,11.7
2023-02-19T02:05:00.151Z,11.6
2023-02-19T02:10:35.144Z,11.6
2023-02-19T02:16:10.702Z,11.5
2023-02-19T02:21:47.024Z,11.4
2023-02-19T02:27:21.997Z,11.4
2023-02-19T02:33:08.254Z,11.3
2023-02-19T02:38:43.546Z,11.3
2023-02-19T02:44:19.183Z,11.3
2023-02-19T02:49:54.601Z,11.3
2023-02-19T02:55:29.519Z,11.3
2023-02-19T03:01:05.464Z,11.3
2023-02-19T03:07:07.920Z,11.3
2023-02-19T03:12:40.650Z,11.2
2023-02-19T03:18:21.008Z,11.2
2023-02-19T03:23:55.943Z,11.2
2023-02-19T03:29:30.848Z,11.1
2023-02-19T03:35:07.043Z,11.1
2023-02-19T03:40:41.806Z,11.1
2023-02-19T03:46:16.751Z,11
2023-02-19T03:51:51.551Z,11
2023-02-19T03:57:26.942Z,10.9
2023-02-19T04:03:02.235Z,10.9
2023-02-19T04:08:58.789Z,10.9
2023-02-19T04:14:31.365Z,10.9
2023-02-19T04:20:06.716Z,10.9
2023-02-19T04:25:42.000Z,10.8
2023-02-19T04:31:18.049Z,10.8
2023-02-19T04:36:55.549Z,10.8
2023-02-19T04:42:32.264Z,10.7
2023-02-19T04:48:07.162Z,10.7
2023-02-19T04:53:42.505Z,10.6
2023-02-19T04:59:17.982Z,10.5
2023-02-19T05:04:53.222Z,10.5
2023-02-19T05:10:28.019Z,10.4
2023-02-19T05:16:04.059Z,10.4
2023-02-19T05:21:39.845Z,10.4
2023-02-19T05:27:16.277Z,10.5
2023-02-19T05:32:52.125Z,10.5
2023-02-19T05:38:27.234Z,10.5
2023-02-19T05:44:02.554Z,10.5
2023-02-19T05:49:38.771Z,10.5
2023-02-19T05:55:13.958Z,10.5
2023-02-19T06:00:49.160Z,10.5
2023-02-19T06:06:51.887Z,10.6
2023-02-19T06:12:24.625Z,10.5
2023-02-19T06:17:59.317Z,10.5
2023-02-19T06:23:37.009Z,10.5
2023-02-19T06:29:12.216Z,10.4
2023-02-19T06:34:47.430Z,10.3
2023-02-19T06:40:22.210Z,10.2
2023-02-19T06:45:58.048Z,10.2
2023-02-19T06:51:33.329Z,9
2023-02-19T06:57:07.953Z,8.6
2023-02-19T07:02:43.041Z,8.2
2023-02-19T07:08:41.862Z,7.9
2023-02-19T07:14:14.565Z,7.9
2023-02-19T07:19:49.666Z,8.1
2023-02-19T07:25:30.430Z,8.3
2023-02-19T07:31:05.561Z,8.1
2023-02-19T07:36:51.519Z,7.8
2023-02-19T07:42:26.483Z,7.6
2023-02-19T07:48:01.531Z,7.5
2023-02-19T07:53:37.679Z,7.7
2023-02-19T07:59:13.135Z,8.2
2023-02-19T08:04:48.455Z,8.7
2023-02-19T08:10:25.058Z,8.8
2023-02-19T08:16:14.690Z,8.9
2023-02-19T08:22:19.601Z,9.1
2023-02-19T08:28:19.025Z,9.5
2023-02-19T08:34:00.642Z,9.8
2023-02-19T08:39:49.925Z,10.3
2023-02-19T08:45:33.253Z,10.5
2023-02-19T08:51:08.884Z,10.7
2023-02-19T08:56:49.074Z,10.9
2023-02-19T09:02:25.236Z,11.1
2023-02-19T09:08:07.753Z,11.3
2023-02-19T09:13:43.648Z,11.5
2023-02-19T09:19:20.279Z,11.4
2023-02-19T09:25:20.418Z,11.4
2023-02-19T09:31:00.358Z,11.5
2023-02-19T09:36:43.566Z,11.8
2023-02-19T09:42:18.721Z,12
2023-02-19T09:47:54.056Z,12.3
2023-02-19T09:53:30.691Z,12.6
2023-02-19T09:59:07.048Z,12.8
2023-02-19T10:05:40.322Z,13.3
2023-02-19T10:11:16.594Z,13.6
2023-02-19T10:16:53.051Z,13.7
2023-02-19T10:22:33.539Z,13.5
2023-02-19T10:28:17.626Z,13.7
2023-02-19T10:33:53.425Z,14
2023-02-19T10:39:31.004Z,14
2023-02-19T10:45:06.117Z,14.3
2023-02-19T10:50:41.312Z,14.4
2023-02-19T10:56:26.604Z,14.3
2023-02-19T11:02:13.173Z,14.4
2023-02-19T11:07:56.969Z,14.6
2023-02-19T11:13:34.175Z,14.6
2023-02-19T11:19:13.940Z,15
2023-02-19T11:24:48.836Z,15
2023-02-19T11:30:36.307Z,15.4
2023-02-19T11:36:13.815Z,15.4
2023-02-19T11:41:50.766Z,15.5
2023-02-19T11:47:30.822Z,15.6
2023-02-19T11:53:10.155Z,15.8
2023-02-19T11:58:45.716Z,16
2023-02-19T12:04:23.999Z,16.2
2023-02-19T12:10:00.393Z,16.3
2023-02-19T12:15:35.632Z,16.6
2023-02-19T12:21:10.999Z,16.8
2023-02-19T12:26:48.122Z,17.2
2023-02-19T12:32:27.960Z,17.3
2023-02-19T12:38:24.451Z,17.4
2023-02-19T12:44:08.085Z,17.7
2023-02-19T12:49:54.136Z,18.3
2023-02-19T12:55:30.392Z,18.1
2023-02-19T13:01:05.736Z,18.3
2023-02-19T13:07:07.698Z,18.8
2023-02-19T13:12:40.630Z,19.1
2023-02-19T13:18:17.072Z,19.2
2023-02-19T13:23:52.255Z,19.5
2023-02-19T13:29:27.716Z,19.7
2023-02-19T13:35:06.558Z,19.9
2023-02-19T13:40:46.739Z,20.2
2023-02-19T13:46:22.136Z,20.6
2023-02-19T13:51:58.762Z,21.2
2023-02-19T13:57:51.727Z,21.9
2023-02-19T14:04:12.056Z,22.8
2023-02-19T14:09:47.334Z,25.8
2023-02-19T14:15:23.139Z,26.1
2023-02-19T14:21:06.327Z,25.9
2023-02-19T14:26:44.918Z,26.9
2023-02-19T14:32:25.862Z,26.9
2023-02-19T14:38:20.125Z,27.7
2023-02-19T14:43:55.819Z,27.4
2023-02-19T14:49:38.159Z,27
2023-02-19T14:55:23.493Z,27.9
2023-02-19T15:01:03.433Z,28.7
2023-02-19T15:07:00.813Z,28.7
2023-02-19T15:12:35.016Z,28.4
2023-02-19T15:18:11.175Z,28.5
2023-02-19T15:23:50.599Z,26.2
2023-02-19T15:29:29.355Z,25.2
2023-02-19T15:35:07.982Z,23.5
2023-02-19T15:40:43.163Z,22.6
2023-02-19T15:46:39.423Z,20.9
2023-02-19T15:52:15.308Z,20.1
2023-02-19T15:57:50.312Z,20.1
2023-02-19T16:03:25.447Z,19.3
2023-02-19T16:09:23.614Z,18.5
2023-02-19T16:14:56.715Z,18
2023-02-19T16:20:37.929Z,17.8
2023-02-19T16:26:13.035Z,17.4
2023-02-19T16:31:58.567Z,17.3
2023-02-19T16:37:35.801Z,17
2023-02-19T16:43:10.952Z,16.7
2023-02-19T16:48:45.890Z,16.4
2023-02-19T16:54:21.897Z,16.1
2023-02-19T16:59:57.942Z,15.9
2023-02-19T17:05:55.332Z,15.6
2023-02-19T17:11:27.858Z,15.4
2023-02-19T17:17:05.781Z,15.1
2023-02-19T17:22:50.522Z,14.8
2023-02-19T17:28:29.398Z,14.6
2023-02-19T17:34:04.878Z,14.5
2023-02-19T17:39:40.092Z,14.3
2023-02-19T17:45:24.031Z,14.2
2023-02-19T17:51:03.177Z,14.1
2023-02-19T17:56:48.451Z,14
2023-02-19T18:02:30.325Z,15.7
2023-02-19T18:08:27.372Z,16.5
2023-02-19T18:14:00.275Z,14.6
2023-02-19T18:19:38.886Z,14.2
2023-02-19T18:25:22.970Z,13.6
2023-02-19T18:30:58.097Z,13.4
2023-02-19T18:36:35.308Z,13.1
2023-02-19T18:42:11.643Z,12.9
2023-02-19T18:47:47.108Z,12.7
2023-02-19T18:53:22.156Z,12.6
2023-02-19T18:59:05.550Z,12.6
2023-02-19T19:04:40.184Z,12.7
2023-02-19T19:10:15.676Z,12.7
2023-02-19T19:15:50.532Z,13
2023-02-19T19:21:39.395Z,13.2
2023-02-19T19:27:22.015Z,13.2
2023-02-19T19:33:27.967Z,13.2
2023-02-19T19:39:13.828Z,13.1
2023-02-19T19:44:49.325Z,13.2
2023-02-19T19:50:25.049Z,13.2
2023-02-19T19:56:01.207Z,13.2
2023-02-19T20:01:36.404Z,13.3
2023-02-19T20:07:13.334Z,13.3
2023-02-19T20:12:52.745Z,13
2023-02-19T20:18:27.864Z,13
2023-02-19T20:24:06.063Z,12.9
2023-02-19T20:29:44.677Z,12.7
2023-02-19T20:35:20.821Z,12.6
2023-02-19T20:40:57.296Z,12.5
2023-02-19T20:46:33.247Z,12.3
2023-02-19T20:52:14.375Z,12
2023-02-19T20:57:54.313Z,11.7
2023-02-19T21:03:50.259Z,11.7
2023-02-19T21:09:46.986Z,11.5
2023-02-19T21:15:50.606Z,11.4
2023-02-19T21:21:28.723Z,11.3
2023-02-19T21:27:05.416Z,11.2
2023-02-19T21:32:50.204Z,11.2
2023-02-19T21:38:27.721Z,11.1
2023-02-19T21:44:02.657Z,10.9
2023-02-19T21:49:41.363Z,10.8
2023-02-19T21:55:38.661Z,10.8
2023-02-19T22:01:48.148Z,10.7
2023-02-19T22:07:50.919Z,10.7
2023-02-19T22:13:24.635Z,10.5
2023-02-19T22:19:00.046Z,10.9
2023-02-19T22:24:40.104Z,11.6
2023-02-19T22:30:18.376Z,11.8
2023-02-19T22:36:03.413Z,11.9
2023-02-19T22:41:39.607Z,12
2023-02-19T22:47:21.885Z,12
2023-02-19T22:52:57.600Z,12.1
2023-02-19T22:58:32.599Z,12.1
2023-02-19T23:04:07.495Z,12.1
2023-02-19T23:09:43.246Z,12.1
2023-02-19T23:15:19.134Z,12.1
2023-02-19T23:21:10.345Z,12.2
2023-02-19T23:27:06.702Z,12.2
2023-02-19T23:33:11.092Z,12.2
2023-02-19T23:38:46.480Z,12.1
2023-02-19T23:44:21.197Z,12
2023-02-19T23:49:56.097Z,12
2023-02-19T23:55:32.061Z,12
